Архив погоды в Кашкаранцах

Метеограмма Кашкаранцы
Среда, 26 Июня
Время местн. Темп Ветер Видим Явления Облачность нижн/средн/верх Атм. давл. Влжн Точка росы ВНГО R Сост. почвы Tg s
Напр Скр Прв ур.ст ур.м изм
15:00 - - - - - - - - - 0 100% - - - - -
12:00 - - - - - - - - - 0 100% - - - - -
09:00 +11.6° Ю,Ю-В 2 3 18 км - переменная облачность 764 764 -0.4 88% +9.7° - 0 Сухая (без трещин) +8° -
06:00 - +10.6° Ю-В 2 2 18 км - - 765 765 -0.2 87% +8.5° - - - - -
03:00 - +7.9° С 3 3 18 км - - 765 765 -0.2 94% +7° - - - - -
00:00 - +9° С 2 2 18 км - - 765 765 0 92% +7.8° - - - - -
Вторник, 25 Июня
Время местн. Темп Ветер Видим Явления Облачность нижн/средн/верх Атм. давл. Влжн Точка росы ВНГО R Сост. почвы Tg s
Напр Скр Прв ур.ст ур.м изм
21:00 +12.2° З 3 4 16 км - переменная облачность 765 765 -0.5 80% +8.9° - 0 - - -
18:00 - +12.4° Ю,Ю-З 2 3 16 км - - 765 766 -0.7 85% +10° - - - - -
15:00 - +13° Ю,Ю-З 2 3 16 км - - 766 766 -0.5 80% +9.7° - - - - -
12:00 - +11.6° Ю,Ю-З 3 3 14 км - - 767 767 -0.5 86% +9.3° - - - - -
09:00 +11.2° Ю 1 1 11 км - преимущественно облачно 767 767 -0.4 86% +8.9° - 0 Сухая (без трещин) - -
06:00 - +8.2° Ю-В 2 3 8 км - - 768 768 -0.3 94% +7.3° - - - - -
03:00 - +4.4° В,Ю-В 1 2 9 км - - 768 768 -0.3 97% +4° - - - - -
00:00 - +8.7° З 3 3 11 км - - 768 768 +0.2 89% +7° - - - - -
Понедельник, 24 Июня
Время местн. Темп Ветер Видим Явления Облачность нижн/средн/верх Атм. давл. Влжн Точка росы ВНГО R Сост. почвы Tg s
Напр Скр Прв ур.ст ур.м изм
21:00 +8.9° З,Ю-З 2 3 17 км - незначительная облачность 768 768 -0.1 84% +6.4° более 2.5 км 0 - - -
18:00 - +9.2° З 5 6 17 км - - 768 768 +0.3 74% +4.9° - - - - -
15:00 - +8.3° З 5 6 14 км - - 768 768 +1 74% +3.9° - - - - -
12:00 - +7.4° С 3 5 16 км - - 767 767 +1.1 71% +2.5° - - - - -
09:00 +6.4° С,С-В 5 7 18 км - облачно 766 766 +0.9 71% +1.5° - 0 Влажная (без луж) - -
06:00 - +4.8° С,С-В 3 4 18 км - - 765 765 +1.1 76% +0.9° - - - - -
03:00 - +4.5° С 3 4 19 км - - 764 764 +1.3 79% +1.2° - - - - -
00:00 - +5.5° С-В 6 7 20 км - - 762 763 +1.7 80% +2.4° - - - - -
Воскресенье, 23 Июня
Время местн. Темп Ветер Видим Явления Облачность нижн/средн/верх Атм. давл. Влжн Точка росы ВНГО R Сост. почвы Tg s
Напр Скр Прв ур.ст ур.м изм
21:00 +7° С,С-В 5 7 19 км - облачно 761 761 +1.9 86% +4.9° - 3 - - -
18:00 - +8.2° С-В 6 9 19 км - - 759 759 +2.5 83% +5.5° - - - - -
15:00 - +9.6° С-В 4 7 20 км - - 756 757 +2.4 86% +7.4° - - - - -
12:00 - +10.1° С,С-В 6 9 5 км - - 754 754 +1.7 94% +9.2° - - - - -